sensor_id;sensor_type;location;lat;lon;timestamp;P1;durP1;ratioP1;P2;durP2;ratioP2
21000;SDS011;10658;50.920;12.238;2023-04-07T00:00:52;16.00;;;11.00;;
21000;SDS011;10658;50.920;12.238;2023-04-07T00:04:53;16.83;;;10.23;;
21000;SDS011;10658;50.920;12.238;2023-04-07T00:08:55;15.88;;;10.63;;
21000;SDS011;10658;50.920;12.238;2023-04-07T00:12:56;16.10;;;8.55;;
21000;SDS011;10658;50.920;12.238;2023-04-07T00:16:57;17.95;;;11.35;;
21000;SDS011;10658;50.920;12.238;2023-04-07T00:20:58;17.10;;;10.95;;
21000;SDS011;10658;50.920;12.238;2023-04-07T00:24:59;15.20;;;10.40;;
21000;SDS011;10658;50.920;12.238;2023-04-07T00:28:59;15.07;;;10.23;;
21000;SDS011;10658;50.920;12.238;2023-04-07T00:33:00;13.25;;;10.13;;
21000;SDS011;10658;50.920;12.238;2023-04-07T00:37:01;18.73;;;11.48;;
21000;SDS011;10658;50.920;12.238;2023-04-07T00:41:02;16.00;;;10.18;;
21000;SDS011;10658;50.920;12.238;2023-04-07T00:45:03;16.65;;;10.88;;
21000;SDS011;10658;50.920;12.238;2023-04-07T00:49:13;17.25;;;11.00;;
21000;SDS011;10658;50.920;12.238;2023-04-07T00:53:17;17.95;;;10.48;;
21000;SDS011;10658;50.920;12.238;2023-04-07T00:57:19;14.35;;;9.38;;
21000;SDS011;10658;50.920;12.238;2023-04-07T01:01:29;14.13;;;9.38;;
21000;SDS011;10658;50.920;12.238;2023-04-07T01:05:41;16.17;;;10.82;;
21000;SDS011;10658;50.920;12.238;2023-04-07T01:09:47;16.23;;;10.60;;
21000;SDS011;10658;50.920;12.238;2023-04-07T01:13:57;15.00;;;10.13;;
21000;SDS011;10658;50.920;12.238;2023-04-07T01:18:13;18.48;;;11.88;;
21000;SDS011;10658;50.920;12.238;2023-04-07T01:22:22;18.35;;;10.15;;
21000;SDS011;10658;50.920;12.238;2023-04-07T01:26:29;14.63;;;9.88;;
21000;SDS011;10658;50.920;12.238;2023-04-07T01:30:34;15.05;;;10.38;;
21000;SDS011;10658;50.920;12.238;2023-04-07T01:34:38;16.65;;;11.07;;
21000;SDS011;10658;50.920;12.238;2023-04-07T01:38:40;14.55;;;9.32;;
21000;SDS011;10658;50.920;12.238;2023-04-07T01:42:43;20.60;;;10.05;;
21000;SDS011;10658;50.920;12.238;2023-04-07T01:46:46;15.13;;;10.73;;
21000;SDS011;10658;50.920;12.238;2023-04-07T01:50:50;13.05;;;9.10;;
21000;SDS011;10658;50.920;12.238;2023-04-07T01:54:52;13.50;;;9.70;;
21000;SDS011;10658;50.920;12.238;2023-04-07T01:58:53;13.23;;;9.23;;
21000;SDS011;10658;50.920;12.238;2023-04-07T02:02:58;14.45;;;10.13;;
21000;SDS011;10658;50.920;12.238;2023-04-07T02:07:08;13.18;;;9.15;;
21000;SDS011;10658;50.920;12.238;2023-04-07T02:11:19;14.95;;;9.15;;
21000;SDS011;10658;50.920;12.238;2023-04-07T02:15:23;15.73;;;10.40;;
21000;SDS011;10658;50.920;12.238;2023-04-07T02:19:26;15.18;;;9.38;;
21000;SDS011;10658;50.920;12.238;2023-04-07T02:23:29;15.52;;;9.75;;
21000;SDS011;10658;50.920;12.238;2023-04-07T02:27:30;15.85;;;11.40;;
21000;SDS011;10658;50.920;12.238;2023-04-07T02:31:31;18.52;;;11.80;;
21000;SDS011;10658;50.920;12.238;2023-04-07T02:35:34;15.43;;;10.40;;
21000;SDS011;10658;50.920;12.238;2023-04-07T02:39:35;15.93;;;10.50;;
21000;SDS011;10658;50.920;12.238;2023-04-07T02:43:36;14.15;;;9.52;;
21000;SDS011;10658;50.920;12.238;2023-04-07T02:47:37;12.90;;;8.95;;
21000;SDS011;10658;50.920;12.238;2023-04-07T02:51:38;14.70;;;10.40;;
21000;SDS011;10658;50.920;12.238;2023-04-07T02:55:40;15.20;;;10.13;;
21000;SDS011;10658;50.920;12.238;2023-04-07T02:59:41;16.00;;;11.07;;
21000;SDS011;10658;50.920;12.238;2023-04-07T03:03:43;17.27;;;10.05;;
21000;SDS011;10658;50.920;12.238;2023-04-07T03:07:51;13.05;;;9.68;;
21000;SDS011;10658;50.920;12.238;2023-04-07T03:11:52;16.83;;;11.00;;
21000;SDS011;10658;50.920;12.238;2023-04-07T03:15:53;17.63;;;10.45;;
21000;SDS011;10658;50.920;12.238;2023-04-07T03:19:55;12.07;;;8.60;;
21000;SDS011;10658;50.920;12.238;2023-04-07T03:23:56;16.92;;;11.20;;
21000;SDS011;10658;50.920;12.238;2023-04-07T03:27:57;15.98;;;10.07;;
21000;SDS011;10658;50.920;12.238;2023-04-07T03:32:01;15.75;;;9.25;;
21000;SDS011;10658;50.920;12.238;2023-04-07T03:36:02;16.25;;;10.55;;
21000;SDS011;10658;50.920;12.238;2023-04-07T03:40:04;14.35;;;9.77;;
21000;SDS011;10658;50.920;12.238;2023-04-07T03:44:08;13.30;;;9.38;;
21000;SDS011;10658;50.920;12.238;2023-04-07T03:48:11;12.02;;;9.27;;
21000;SDS011;10658;50.920;12.238;2023-04-07T03:52:20;14.35;;;10.00;;
21000;SDS011;10658;50.920;12.238;2023-04-07T03:56:24;17.40;;;10.60;;
21000;SDS011;10658;50.920;12.238;2023-04-07T04:00:25;17.23;;;10.43;;
21000;SDS011;10658;50.920;12.238;2023-04-07T04:04:38;17.23;;;10.52;;
21000;SDS011;10658;50.920;12.238;2023-04-07T04:08:42;19.35;;;11.15;;
21000;SDS011;10658;50.920;12.238;2023-04-07T04:12:45;16.77;;;11.20;;
21000;SDS011;10658;50.920;12.238;2023-04-07T04:16:46;17.35;;;10.88;;
21000;SDS011;10658;50.920;12.238;2023-04-07T04:20:59;15.00;;;9.48;;
21000;SDS011;10658;50.920;12.238;2023-04-07T04:25:01;11.30;;;8.48;;
21000;SDS011;10658;50.920;12.238;2023-04-07T04:29:02;16.45;;;10.40;;
21000;SDS011;10658;50.920;12.238;2023-04-07T04:33:03;15.77;;;10.15;;
21000;SDS011;10658;50.920;12.238;2023-04-07T04:37:15;16.27;;;11.02;;
21000;SDS011;10658;50.920;12.238;2023-04-07T04:41:19;15.35;;;9.50;;
21000;SDS011;10658;50.920;12.238;2023-04-07T04:45:22;14.65;;;9.25;;
21000;SDS011;10658;50.920;12.238;2023-04-07T04:49:24;11.75;;;8.77;;
21000;SDS011;10658;50.920;12.238;2023-04-07T04:58:28;14.00;;;10.00;;
21000;SDS011;10658;50.920;12.238;2023-04-07T05:02:30;11.63;;;8.45;;
21000;SDS011;10658;50.920;12.238;2023-04-07T05:06:31;14.02;;;9.20;;
21000;SDS011;10658;50.920;12.238;2023-04-07T05:10:38;14.52;;;9.95;;
21000;SDS011;10658;50.920;12.238;2023-04-07T05:14:43;17.60;;;10.35;;
21000;SDS011;10658;50.920;12.238;2023-04-07T05:18:43;12.50;;;9.23;;
21000;SDS011;10658;50.920;12.238;2023-04-07T05:22:45;13.70;;;9.45;;
21000;SDS011;10658;50.920;12.238;2023-04-07T05:26:48;16.98;;;9.63;;
21000;SDS011;10658;50.920;12.238;2023-04-07T05:30:49;14.43;;;9.38;;
21000;SDS011;10658;50.920;12.238;2023-04-07T05:34:50;22.27;;;14.40;;
21000;SDS011;10658;50.920;12.238;2023-04-07T05:38:52;29.30;;;16.65;;
21000;SDS011;10658;50.920;12.238;2023-04-07T05:42:52;23.98;;;14.32;;
21000;SDS011;10658;50.920;12.238;2023-04-07T05:46:54;16.35;;;10.65;;
21000;SDS011;10658;50.920;12.238;2023-04-07T05:50:57;15.38;;;9.80;;
21000;SDS011;10658;50.920;12.238;2023-04-07T05:54:59;15.43;;;10.30;;
21000;SDS011;10658;50.920;12.238;2023-04-07T05:59:03;16.40;;;10.38;;
21000;SDS011;10658;50.920;12.238;2023-04-07T06:03:05;14.98;;;9.98;;
21000;SDS011;10658;50.920;12.238;2023-04-07T06:07:15;15.38;;;11.40;;
21000;SDS011;10658;50.920;12.238;2023-04-07T06:11:16;17.35;;;11.55;;
21000;SDS011;10658;50.920;12.238;2023-04-07T06:15:17;18.02;;;12.00;;
21000;SDS011;10658;50.920;12.238;2023-04-07T06:19:18;18.10;;;11.25;;
21000;SDS011;10658;50.920;12.238;2023-04-07T06:23:19;18.42;;;12.75;;
21000;SDS011;10658;50.920;12.238;2023-04-07T06:27:20;16.00;;;10.50;;
21000;SDS011;10658;50.920;12.238;2023-04-07T06:31:22;20.25;;;11.50;;
21000;SDS011;10658;50.920;12.238;2023-04-07T06:35:25;18.02;;;11.18;;
21000;SDS011;10658;50.920;12.238;2023-04-07T06:44:21;17.40;;;12.05;;
21000;SDS011;10658;50.920;12.238;2023-04-07T06:48:22;16.05;;;10.63;;
21000;SDS011;10658;50.920;12.238;2023-04-07T06:52:22;13.55;;;9.82;;
21000;SDS011;10658;50.920;12.238;2023-04-07T06:56:23;12.73;;;9.90;;
21000;SDS011;10658;50.920;12.238;2023-04-07T07:00:25;13.20;;;9.13;;
21000;SDS011;10658;50.920;12.238;2023-04-07T07:04:29;14.45;;;8.85;;
21000;SDS011;10658;50.920;12.238;2023-04-07T07:08:30;11.30;;;8.82;;
21000;SDS011;10658;50.920;12.238;2023-04-07T07:12:31;11.98;;;9.00;;
21000;SDS011;10658;50.920;12.238;2023-04-07T07:16:32;10.40;;;7.75;;
21000;SDS011;10658;50.920;12.238;2023-04-07T07:20:33;11.75;;;8.43;;
21000;SDS011;10658;50.920;12.238;2023-04-07T07:24:33;9.48;;;7.90;;
21000;SDS011;10658;50.920;12.238;2023-04-07T07:28:34;9.40;;;7.80;;
21000;SDS011;10658;50.920;12.238;2023-04-07T07:32:35;12.32;;;7.78;;
21000;SDS011;10658;50.920;12.238;2023-04-07T07:36:36;14.45;;;9.00;;
21000;SDS011;10658;50.920;12.238;2023-04-07T07:40:36;13.43;;;7.85;;
21000;SDS011;10658;50.920;12.238;2023-04-07T07:44:37;9.40;;;7.60;;
21000;SDS011;10658;50.920;12.238;2023-04-07T07:48:38;10.77;;;7.85;;
21000;SDS011;10658;50.920;12.238;2023-04-07T07:52:39;9.00;;;7.47;;
21000;SDS011;10658;50.920;12.238;2023-04-07T07:56:39;9.30;;;7.18;;
21000;SDS011;10658;50.920;12.238;2023-04-07T08:00:40;10.48;;;6.60;;
21000;SDS011;10658;50.920;12.238;2023-04-07T08:04:41;9.00;;;7.05;;
21000;SDS011;10658;50.920;12.238;2023-04-07T08:08:42;9.38;;;7.85;;
21000;SDS011;10658;50.920;12.238;2023-04-07T08:12:43;8.98;;;7.18;;
21000;SDS011;10658;50.920;12.238;2023-04-07T08:16:43;11.02;;;7.75;;
21000;SDS011;10658;50.920;12.238;2023-04-07T08:20:45;9.75;;;7.47;;
21000;SDS011;10658;50.920;12.238;2023-04-07T08:24:46;9.90;;;6.88;;
21000;SDS011;10658;50.920;12.238;2023-04-07T08:28:47;11.05;;;7.15;;
21000;SDS011;10658;50.920;12.238;2023-04-07T08:32:50;9.93;;;6.95;;
21000;SDS011;10658;50.920;12.238;2023-04-07T08:36:51;9.73;;;7.70;;
21000;SDS011;10658;50.920;12.238;2023-04-07T08:40:54;10.32;;;6.93;;
21000;SDS011;10658;50.920;12.238;2023-04-07T08:45:02;9.45;;;7.15;;
21000;SDS011;10658;50.920;12.238;2023-04-07T08:49:08;8.02;;;6.68;;
21000;SDS011;10658;50.920;12.238;2023-04-07T08:53:12;7.47;;;6.07;;
21000;SDS011;10658;50.920;12.238;2023-04-07T08:57:17;9.48;;;6.35;;
21000;SDS011;10658;50.920;12.238;2023-04-07T09:01:18;8.85;;;6.95;;
21000;SDS011;10658;50.920;12.238;2023-04-07T09:05:20;8.82;;;6.50;;
21000;SDS011;10658;50.920;12.238;2023-04-07T09:09:21;9.73;;;6.57;;
21000;SDS011;10658;50.920;12.238;2023-04-07T09:13:23;8.50;;;6.40;;
21000;SDS011;10658;50.920;12.238;2023-04-07T09:17:25;10.48;;;7.05;;
21000;SDS011;10658;50.920;12.238;2023-04-07T09:21:45;8.27;;;6.93;;
21000;SDS011;10658;50.920;12.238;2023-04-07T09:25:48;31.98;;;7.70;;
21000;SDS011;10658;50.920;12.238;2023-04-07T09:29:48;8.30;;;6.47;;
21000;SDS011;10658;50.920;12.238;2023-04-07T09:33:49;7.65;;;6.43;;
21000;SDS011;10658;50.920;12.238;2023-04-07T09:38:01;9.18;;;6.55;;
21000;SDS011;10658;50.920;12.238;2023-04-07T09:42:06;11.40;;;6.85;;
21000;SDS011;10658;50.920;12.238;2023-04-07T09:46:07;11.80;;;7.78;;
21000;SDS011;10658;50.920;12.238;2023-04-07T09:50:09;8.23;;;6.85;;
21000;SDS011;10658;50.920;12.238;2023-04-07T09:54:11;10.15;;;7.22;;
21000;SDS011;10658;50.920;12.238;2023-04-07T09:58:12;10.32;;;7.68;;
21000;SDS011;10658;50.920;12.238;2023-04-07T10:02:13;8.68;;;6.80;;
21000;SDS011;10658;50.920;12.238;2023-04-07T10:06:14;9.43;;;7.05;;
21000;SDS011;10658;50.920;12.238;2023-04-07T10:10:15;7.85;;;7.00;;
21000;SDS011;10658;50.920;12.238;2023-04-07T10:14:17;8.25;;;6.97;;
21000;SDS011;10658;50.920;12.238;2023-04-07T10:18:19;9.07;;;6.90;;
21000;SDS011;10658;50.920;12.238;2023-04-07T10:22:22;8.52;;;5.60;;
21000;SDS011;10658;50.920;12.238;2023-04-07T10:26:25;8.30;;;6.10;;
21000;SDS011;10658;50.920;12.238;2023-04-07T10:30:29;8.23;;;5.43;;
21000;SDS011;10658;50.920;12.238;2023-04-07T10:43:08;8.98;;;5.78;;
21000;SDS011;10658;50.920;12.238;2023-04-07T10:47:14;10.25;;;6.20;;
21000;SDS011;10658;50.920;12.238;2023-04-07T10:51:15;7.28;;;5.63;;
21000;SDS011;10658;50.920;12.238;2023-04-07T10:55:33;6.00;;;5.25;;
21000;SDS011;10658;50.920;12.238;2023-04-07T10:59:38;8.70;;;6.43;;
21000;SDS011;10658;50.920;12.238;2023-04-07T11:03:54;9.35;;;5.78;;
21000;SDS011;10658;50.920;12.238;2023-04-07T11:07:57;8.55;;;6.68;;
21000;SDS011;10658;50.920;12.238;2023-04-07T11:12:01;9.18;;;6.72;;
21000;SDS011;10658;50.920;12.238;2023-04-07T11:16:02;6.53;;;5.78;;
21000;SDS011;10658;50.920;12.238;2023-04-07T11:20:03;8.63;;;5.90;;
21000;SDS011;10658;50.920;12.238;2023-04-07T11:24:05;6.78;;;6.00;;
21000;SDS011;10658;50.920;12.238;2023-04-07T11:28:08;6.47;;;5.88;;
21000;SDS011;10658;50.920;12.238;2023-04-07T11:32:10;9.48;;;6.57;;
21000;SDS011;10658;50.920;12.238;2023-04-07T11:36:12;10.35;;;6.88;;
21000;SDS011;10658;50.920;12.238;2023-04-07T11:40:12;9.13;;;6.43;;
21000;SDS011;10658;50.920;12.238;2023-04-07T11:44:33;8.55;;;6.75;;
21000;SDS011;10658;50.920;12.238;2023-04-07T11:48:34;7.10;;;6.40;;
21000;SDS011;10658;50.920;12.238;2023-04-07T11:52:40;9.65;;;6.82;;
21000;SDS011;10658;50.920;12.238;2023-04-07T11:56:46;9.98;;;6.63;;
21000;SDS011;10658;50.920;12.238;2023-04-07T12:01:00;7.82;;;6.65;;
21000;SDS011;10658;50.920;12.238;2023-04-07T12:05:05;8.57;;;6.57;;
21000;SDS011;10658;50.920;12.238;2023-04-07T12:09:24;8.73;;;7.03;;
21000;SDS011;10658;50.920;12.238;2023-04-07T12:13:29;8.10;;;6.55;;
21000;SDS011;10658;50.920;12.238;2023-04-07T12:17:30;10.30;;;7.30;;
21000;SDS011;10658;50.920;12.238;2023-04-07T12:21:31;10.07;;;7.05;;
21000;SDS011;10658;50.920;12.238;2023-04-07T12:25:32;9.15;;;7.10;;
21000;SDS011;10658;50.920;12.238;2023-04-07T12:29:33;11.20;;;7.35;;
21000;SDS011;10658;50.920;12.238;2023-04-07T12:33:34;8.00;;;6.00;;
21000;SDS011;10658;50.920;12.238;2023-04-07T12:37:35;9.20;;;7.03;;
21000;SDS011;10658;50.920;12.238;2023-04-07T12:41:36;8.40;;;6.65;;
21000;SDS011;10658;50.920;12.238;2023-04-07T12:45:37;8.60;;;6.97;;
21000;SDS011;10658;50.920;12.238;2023-04-07T12:49:38;9.35;;;7.20;;
21000;SDS011;10658;50.920;12.238;2023-04-07T12:53:39;9.32;;;6.38;;
21000;SDS011;10658;50.920;12.238;2023-04-07T12:57:40;10.25;;;6.53;;
21000;SDS011;10658;50.920;12.238;2023-04-07T13:01:41;8.93;;;6.78;;
21000;SDS011;10658;50.920;12.238;2023-04-07T13:05:41;12.10;;;8.52;;
21000;SDS011;10658;50.920;12.238;2023-04-07T13:09:42;9.68;;;7.28;;
21000;SDS011;10658;50.920;12.238;2023-04-07T13:13:43;8.88;;;7.13;;
21000;SDS011;10658;50.920;12.238;2023-04-07T13:17:44;11.02;;;7.55;;
21000;SDS011;10658;50.920;12.238;2023-04-07T13:21:46;10.77;;;7.32;;
21000;SDS011;10658;50.920;12.238;2023-04-07T13:25:47;11.10;;;7.35;;
21000;SDS011;10658;50.920;12.238;2023-04-07T13:29:48;8.13;;;6.45;;
21000;SDS011;10658;50.920;12.238;2023-04-07T13:33:49;8.02;;;6.43;;
21000;SDS011;10658;50.920;12.238;2023-04-07T13:37:50;10.48;;;7.68;;
21000;SDS011;10658;50.920;12.238;2023-04-07T13:41:53;11.98;;;8.30;;
21000;SDS011;10658;50.920;12.238;2023-04-07T13:45:54;9.27;;;6.95;;
21000;SDS011;10658;50.920;12.238;2023-04-07T13:49:55;10.68;;;7.90;;
21000;SDS011;10658;50.920;12.238;2023-04-07T13:53:56;9.60;;;7.13;;
21000;SDS011;10658;50.920;12.238;2023-04-07T13:57:57;11.13;;;8.52;;
21000;SDS011;10658;50.920;12.238;2023-04-07T14:01:58;12.52;;;8.23;;
21000;SDS011;10658;50.920;12.238;2023-04-07T14:05:58;10.73;;;8.38;;
21000;SDS011;10658;50.920;12.238;2023-04-07T14:10:00;10.57;;;8.57;;
21000;SDS011;10658;50.920;12.238;2023-04-07T14:14:01;11.23;;;8.45;;
21000;SDS011;10658;50.920;12.238;2023-04-07T14:18:01;12.25;;;8.25;;
21000;SDS011;10658;50.920;12.238;2023-04-07T14:22:02;12.15;;;8.95;;
21000;SDS011;10658;50.920;12.238;2023-04-07T14:26:03;11.00;;;7.75;;
21000;SDS011;10658;50.920;12.238;2023-04-07T14:30:04;12.48;;;9.00;;
21000;SDS011;10658;50.920;12.238;2023-04-07T14:34:05;13.82;;;10.02;;
21000;SDS011;10658;50.920;12.238;2023-04-07T14:38:09;13.63;;;9.30;;
21000;SDS011;10658;50.920;12.238;2023-04-07T14:42:10;12.15;;;9.43;;
21000;SDS011;10658;50.920;12.238;2023-04-07T14:46:10;14.18;;;9.63;;
21000;SDS011;10658;50.920;12.238;2023-04-07T14:50:11;13.93;;;9.20;;
21000;SDS011;10658;50.920;12.238;2023-04-07T14:54:12;12.30;;;8.65;;
21000;SDS011;10658;50.920;12.238;2023-04-07T14:58:13;13.60;;;9.88;;
21000;SDS011;10658;50.920;12.238;2023-04-07T15:02:13;14.50;;;8.73;;
21000;SDS011;10658;50.920;12.238;2023-04-07T15:06:14;13.20;;;8.25;;
21000;SDS011;10658;50.920;12.238;2023-04-07T15:10:15;14.05;;;9.13;;
21000;SDS011;10658;50.920;12.238;2023-04-07T15:14:17;12.38;;;9.23;;
21000;SDS011;10658;50.920;12.238;2023-04-07T15:18:18;12.40;;;9.10;;
21000;SDS011;10658;50.920;12.238;2023-04-07T15:22:19;11.05;;;9.70;;
21000;SDS011;10658;50.920;12.238;2023-04-07T15:26:20;12.95;;;8.95;;
21000;SDS011;10658;50.920;12.238;2023-04-07T15:30:21;12.90;;;8.10;;
21000;SDS011;10658;50.920;12.238;2023-04-07T15:34:21;11.70;;;9.10;;
21000;SDS011;10658;50.920;12.238;2023-04-07T15:38:22;13.50;;;8.23;;
21000;SDS011;10658;50.920;12.238;2023-04-07T15:42:23;10.98;;;8.15;;
21000;SDS011;10658;50.920;12.238;2023-04-07T15:46:24;10.45;;;8.32;;
21000;SDS011;10658;50.920;12.238;2023-04-07T15:50:25;15.73;;;9.35;;
21000;SDS011;10658;50.920;12.238;2023-04-07T15:54:27;9.93;;;7.50;;
21000;SDS011;10658;50.920;12.238;2023-04-07T15:58:29;10.32;;;8.27;;
21000;SDS011;10658;50.920;12.238;2023-04-07T16:02:30;10.93;;;7.75;;
21000;SDS011;10658;50.920;12.238;2023-04-07T16:06:31;10.35;;;8.27;;
21000;SDS011;10658;50.920;12.238;2023-04-07T16:10:32;8.75;;;7.10;;
21000;SDS011;10658;50.920;12.238;2023-04-07T16:14:32;11.10;;;7.80;;
21000;SDS011;10658;50.920;12.238;2023-04-07T16:18:33;11.52;;;7.75;;
21000;SDS011;10658;50.920;12.238;2023-04-07T16:22:34;10.85;;;7.50;;
21000;SDS011;10658;50.920;12.238;2023-04-07T16:26:35;10.88;;;7.85;;
21000;SDS011;10658;50.920;12.238;2023-04-07T16:30:36;11.82;;;7.60;;
21000;SDS011;10658;50.920;12.238;2023-04-07T16:34:37;10.43;;;7.55;;
21000;SDS011;10658;50.920;12.238;2023-04-07T16:38:38;10.13;;;8.15;;
21000;SDS011;10658;50.920;12.238;2023-04-07T16:42:39;11.15;;;7.45;;
21000;SDS011;10658;50.920;12.238;2023-04-07T16:46:40;11.73;;;7.65;;
21000;SDS011;10658;50.920;12.238;2023-04-07T16:50:41;12.48;;;8.10;;
21000;SDS011;10658;50.920;12.238;2023-04-07T16:54:42;9.95;;;7.53;;
21000;SDS011;10658;50.920;12.238;2023-04-07T16:58:43;11.50;;;7.72;;
21000;SDS011;10658;50.920;12.238;2023-04-07T17:02:44;9.02;;;7.50;;
21000;SDS011;10658;50.920;12.238;2023-04-07T17:06:45;13.98;;;7.50;;
21000;SDS011;10658;50.920;12.238;2023-04-07T17:10:46;12.65;;;8.63;;
21000;SDS011;10658;50.920;12.238;2023-04-07T17:14:47;8.65;;;6.53;;
21000;SDS011;10658;50.920;12.238;2023-04-07T17:18:48;11.77;;;7.97;;
21000;SDS011;10658;50.920;12.238;2023-04-07T17:22:49;10.60;;;7.30;;
21000;SDS011;10658;50.920;12.238;2023-04-07T17:26:50;10.77;;;8.38;;
21000;SDS011;10658;50.920;12.238;2023-04-07T17:30:51;9.00;;;7.13;;
21000;SDS011;10658;50.920;12.238;2023-04-07T17:34:51;11.93;;;7.25;;
21000;SDS011;10658;50.920;12.238;2023-04-07T17:38:52;9.02;;;6.45;;
21000;SDS011;10658;50.920;12.238;2023-04-07T17:42:53;8.73;;;6.93;;
21000;SDS011;10658;50.920;12.238;2023-04-07T17:46:55;12.63;;;7.03;;
21000;SDS011;10658;50.920;12.238;2023-04-07T17:50:59;7.18;;;5.78;;
21000;SDS011;10658;50.920;12.238;2023-04-07T17:55:00;12.65;;;6.88;;
21000;SDS011;10658;50.920;12.238;2023-04-07T17:59:01;10.20;;;6.63;;
21000;SDS011;10658;50.920;12.238;2023-04-07T18:03:02;10.15;;;7.38;;
21000;SDS011;10658;50.920;12.238;2023-04-07T18:07:03;8.95;;;6.80;;
21000;SDS011;10658;50.920;12.238;2023-04-07T18:11:04;7.70;;;6.38;;
21000;SDS011;10658;50.920;12.238;2023-04-07T18:15:05;14.35;;;7.47;;
21000;SDS011;10658;50.920;12.238;2023-04-07T18:19:06;11.43;;;7.95;;
21000;SDS011;10658;50.920;12.238;2023-04-07T18:23:07;10.15;;;7.38;;
21000;SDS011;10658;50.920;12.238;2023-04-07T18:27:08;9.45;;;7.38;;
21000;SDS011;10658;50.920;12.238;2023-04-07T18:31:12;10.68;;;7.45;;
21000;SDS011;10658;50.920;12.238;2023-04-07T18:35:17;10.07;;;7.25;;
21000;SDS011;10658;50.920;12.238;2023-04-07T18:39:18;10.30;;;7.20;;
21000;SDS011;10658;50.920;12.238;2023-04-07T18:43:21;10.02;;;6.93;;
21000;SDS011;10658;50.920;12.238;2023-04-07T18:47:22;10.85;;;7.28;;
21000;SDS011;10658;50.920;12.238;2023-04-07T18:51:24;14.90;;;7.10;;
21000;SDS011;10658;50.920;12.238;2023-04-07T18:55:25;11.57;;;7.40;;
21000;SDS011;10658;50.920;12.238;2023-04-07T18:59:26;9.82;;;6.72;;
21000;SDS011;10658;50.920;12.238;2023-04-07T19:03:27;9.70;;;5.95;;
21000;SDS011;10658;50.920;12.238;2023-04-07T19:07:28;10.23;;;6.65;;
21000;SDS011;10658;50.920;12.238;2023-04-07T19:11:29;8.30;;;6.45;;
21000;SDS011;10658;50.920;12.238;2023-04-07T19:15:30;8.65;;;5.78;;
21000;SDS011;10658;50.920;12.238;2023-04-07T19:19:39;8.85;;;5.55;;
21000;SDS011;10658;50.920;12.238;2023-04-07T19:23:40;8.40;;;5.82;;
21000;SDS011;10658;50.920;12.238;2023-04-07T19:27:41;9.40;;;5.38;;
21000;SDS011;10658;50.920;12.238;2023-04-07T19:31:43;12.65;;;5.75;;
21000;SDS011;10658;50.920;12.238;2023-04-07T19:35:44;7.03;;;5.30;;
21000;SDS011;10658;50.920;12.238;2023-04-07T19:39:45;10.02;;;5.88;;
21000;SDS011;10658;50.920;12.238;2023-04-07T19:43:49;7.72;;;5.18;;
21000;SDS011;10658;50.920;12.238;2023-04-07T19:47:50;6.78;;;4.43;;
21000;SDS011;10658;50.920;12.238;2023-04-07T19:51:51;7.22;;;4.38;;
21000;SDS011;10658;50.920;12.238;2023-04-07T19:55:53;5.55;;;4.07;;
21000;SDS011;10658;50.920;12.238;2023-04-07T19:59:54;6.10;;;3.67;;
21000;SDS011;10658;50.920;12.238;2023-04-07T20:03:55;6.68;;;3.55;;
21000;SDS011;10658;50.920;12.238;2023-04-07T20:07:55;5.07;;;3.70;;
21000;SDS011;10658;50.920;12.238;2023-04-07T20:11:56;5.85;;;3.88;;
21000;SDS011;10658;50.920;12.238;2023-04-07T20:15:58;5.18;;;3.70;;
21000;SDS011;10658;50.920;12.238;2023-04-07T20:19:59;5.03;;;3.15;;
21000;SDS011;10658;50.920;12.238;2023-04-07T20:24:00;8.15;;;4.57;;
21000;SDS011;10658;50.920;12.238;2023-04-07T20:28:02;4.05;;;3.40;;
21000;SDS011;10658;50.920;12.238;2023-04-07T20:32:03;4.55;;;3.13;;
21000;SDS011;10658;50.920;12.238;2023-04-07T20:36:04;7.30;;;3.72;;
21000;SDS011;10658;50.920;12.238;2023-04-07T20:40:05;5.15;;;3.10;;
21000;SDS011;10658;50.920;12.238;2023-04-07T20:44:07;4.50;;;3.30;;
21000;SDS011;10658;50.920;12.238;2023-04-07T20:48:08;3.47;;;2.95;;
21000;SDS011;10658;50.920;12.238;2023-04-07T20:52:09;4.18;;;2.83;;
21000;SDS011;10658;50.920;12.238;2023-04-07T20:56:10;4.28;;;2.75;;
21000;SDS011;10658;50.920;12.238;2023-04-07T21:00:11;3.53;;;2.63;;
21000;SDS011;10658;50.920;12.238;2023-04-07T21:04:12;5.78;;;3.13;;
21000;SDS011;10658;50.920;12.238;2023-04-07T21:08:13;5.82;;;3.17;;
21000;SDS011;10658;50.920;12.238;2023-04-07T21:12:14;4.95;;;2.58;;
21000;SDS011;10658;50.920;12.238;2023-04-07T21:16:15;5.63;;;3.28;;
21000;SDS011;10658;50.920;12.238;2023-04-07T21:20:16;5.75;;;3.00;;
21000;SDS011;10658;50.920;12.238;2023-04-07T21:24:17;3.83;;;3.10;;
21000;SDS011;10658;50.920;12.238;2023-04-07T21:28:18;3.97;;;3.00;;
21000;SDS011;10658;50.920;12.238;2023-04-07T21:32:19;7.80;;;4.38;;
21000;SDS011;10658;50.920;12.238;2023-04-07T21:36:21;4.65;;;3.53;;
21000;SDS011;10658;50.920;12.238;2023-04-07T21:40:22;6.93;;;4.28;;
21000;SDS011;10658;50.920;12.238;2023-04-07T21:44:22;6.47;;;4.32;;
21000;SDS011;10658;50.920;12.238;2023-04-07T21:48:23;5.88;;;3.95;;
21000;SDS011;10658;50.920;12.238;2023-04-07T21:52:24;6.60;;;3.90;;
21000;SDS011;10658;50.920;12.238;2023-04-07T21:56:26;6.43;;;4.15;;
21000;SDS011;10658;50.920;12.238;2023-04-07T22:00:27;7.32;;;4.47;;
21000;SDS011;10658;50.920;12.238;2023-04-07T22:04:27;8.20;;;4.63;;
21000;SDS011;10658;50.920;12.238;2023-04-07T22:08:28;5.70;;;4.57;;
21000;SDS011;10658;50.920;12.238;2023-04-07T22:12:29;7.10;;;5.07;;
21000;SDS011;10658;50.920;12.238;2023-04-07T22:16:30;7.00;;;4.75;;
21000;SDS011;10658;50.920;12.238;2023-04-07T22:20:31;8.80;;;4.75;;
21000;SDS011;10658;50.920;12.238;2023-04-07T22:24:31;6.63;;;5.18;;
21000;SDS011;10658;50.920;12.238;2023-04-07T22:28:33;7.53;;;4.85;;
21000;SDS011;10658;50.920;12.238;2023-04-07T22:32:34;6.68;;;4.88;;
21000;SDS011;10658;50.920;12.238;2023-04-07T22:36:35;6.88;;;4.65;;
21000;SDS011;10658;50.920;12.238;2023-04-07T22:40:36;8.50;;;5.22;;
21000;SDS011;10658;50.920;12.238;2023-04-07T22:44:37;7.13;;;5.18;;
21000;SDS011;10658;50.920;12.238;2023-04-07T22:48:37;7.93;;;4.95;;
21000;SDS011;10658;50.920;12.238;2023-04-07T22:52:39;7.28;;;5.07;;
21000;SDS011;10658;50.920;12.238;2023-04-07T22:56:39;8.07;;;5.53;;
21000;SDS011;10658;50.920;12.238;2023-04-07T23:00:40;7.40;;;5.32;;
21000;SDS011;10658;50.920;12.238;2023-04-07T23:04:41;8.05;;;5.05;;
21000;SDS011;10658;50.920;12.238;2023-04-07T23:08:42;8.25;;;5.20;;
21000;SDS011;10658;50.920;12.238;2023-04-07T23:12:44;8.20;;;5.50;;
21000;SDS011;10658;50.920;12.238;2023-04-07T23:16:45;8.52;;;5.25;;
21000;SDS011;10658;50.920;12.238;2023-04-07T23:20:49;10.07;;;6.15;;
21000;SDS011;10658;50.920;12.238;2023-04-07T23:24:53;9.07;;;5.20;;
21000;SDS011;10658;50.920;12.238;2023-04-07T23:28:55;10.27;;;6.18;;
21000;SDS011;10658;50.920;12.238;2023-04-07T23:32:56;9.98;;;6.30;;
21000;SDS011;10658;50.920;12.238;2023-04-07T23:36:57;10.48;;;6.72;;
21000;SDS011;10658;50.920;12.238;2023-04-07T23:40:58;9.23;;;5.68;;
21000;SDS011;10658;50.920;12.238;2023-04-07T23:44:58;9.70;;;6.15;;
21000;SDS011;10658;50.920;12.238;2023-04-07T23:48:59;10.65;;;6.95;;
21000;SDS011;10658;50.920;12.238;2023-04-07T23:53:00;13.52;;;7.13;;
21000;SDS011;10658;50.920;12.238;2023-04-07T23:57:02;9.98;;;6.63;;
